createdAt,value
2019-02-16T00:01:14.859Z,68.92
2019-02-16T00:03:45.928Z,69.12
2019-02-16T00:06:17.017Z,69.37
2019-02-16T00:08:48.239Z,69.16
2019-02-16T00:11:19.710Z,68.98
2019-02-16T00:13:50.808Z,69.67
2019-02-16T00:16:21.795Z,69.72
2019-02-16T00:18:52.889Z,69.43
2019-02-16T00:21:24.008Z,69.15
2019-02-16T00:23:55.225Z,69.21
2019-02-16T00:26:26.436Z,68.50
2019-02-16T00:28:57.420Z,68.45
2019-02-16T00:31:28.871Z,68.46
2019-02-16T00:34:02.261Z,68.11
2019-02-16T00:36:33.668Z,68.26
2019-02-16T00:39:05.790Z,68.51
2019-02-16T00:41:37.468Z,68.33
2019-02-16T00:44:08.479Z,68.12
2019-02-16T00:46:39.579Z,68.23
2019-02-16T00:49:10.583Z,68.17
2019-02-16T00:51:41.607Z,68.29
2019-02-16T00:54:18.079Z,68.29
2019-02-16T00:56:49.164Z,68.19
2019-02-16T00:59:20.342Z,68.04
2019-02-16T01:01:51.363Z,68.00
2019-02-16T01:04:22.427Z,68.83
2019-02-16T01:06:53.709Z,68.95
2019-02-16T01:09:24.792Z,69.05
2019-02-16T01:11:55.834Z,69.35
2019-02-16T01:14:26.924Z,68.96
2019-02-16T01:16:57.934Z,68.93
2019-02-16T01:19:29.224Z,69.96
2019-02-16T01:22:00.286Z,70.05
2019-02-16T01:24:31.420Z,69.85
2019-02-16T01:27:02.481Z,69.60
2019-02-16T01:29:33.507Z,69.14
2019-02-16T01:32:04.677Z,69.14
2019-02-16T01:34:35.651Z,69.09
2019-02-16T01:37:06.707Z,69.77
2019-02-16T01:39:38.778Z,71.11
2019-02-16T01:42:09.878Z,71.28
2019-02-16T01:44:40.974Z,71.19
2019-02-16T01:47:12.013Z,71.39
2019-02-16T01:49:43.021Z,72.17
2019-02-16T01:52:14.161Z,71.88
2019-02-16T01:54:45.234Z,71.40
2019-02-16T01:57:16.412Z,71.47
2019-02-16T01:59:47.483Z,71.45
2019-02-16T02:02:18.591Z,71.66
2019-02-16T02:04:49.645Z,71.43
2019-02-16T02:07:20.742Z,71.99
2019-02-16T02:09:51.831Z,72.68
2019-02-16T02:12:23.048Z,73.49
2019-02-16T02:14:54.053Z,73.06
2019-02-16T02:17:25.247Z,72.27
2019-02-16T02:19:57.322Z,71.86
2019-02-16T02:22:28.354Z,71.27
2019-02-16T02:24:59.354Z,71.59
2019-02-16T02:27:30.556Z,72.12
2019-02-16T02:30:01.872Z,72.44
2019-02-16T02:32:32.968Z,72.33
2019-02-16T02:35:04.312Z,73.16
2019-02-16T02:37:35.534Z,73.42
2019-02-16T02:40:06.728Z,72.71
2019-02-16T02:42:37.806Z,72.54
2019-02-16T02:45:10.071Z,72.71
2019-02-16T02:47:42.044Z,72.85
2019-02-16T02:50:13.059Z,73.04
2019-02-16T02:52:44.171Z,72.99
2019-02-16T02:55:15.265Z,74.37
2019-02-16T02:57:46.358Z,74.70
2019-02-16T03:00:17.438Z,74.29
2019-02-16T03:02:48.600Z,73.96
2019-02-16T03:05:20.972Z,74.20
2019-02-16T03:07:51.970Z,73.84
2019-02-16T03:10:23.056Z,73.60
2019-02-16T03:12:54.080Z,73.38
2019-02-16T03:15:25.092Z,73.55
2019-02-16T03:17:56.470Z,73.64
2019-02-16T03:20:27.557Z,73.68
2019-02-16T03:23:15.785Z,73.70
2019-02-16T03:25:53.493Z,73.46
2019-02-16T03:28:43.604Z,74.03
2019-02-16T03:31:31.461Z,74.34
2019-02-16T03:34:08.168Z,74.81
2019-02-16T03:37:09.896Z,75.97
2019-02-16T03:39:44.668Z,75.74
2019-02-16T03:42:15.781Z,74.93
2019-02-16T03:44:47.112Z,75.21
2019-02-16T03:47:18.229Z,76.07
2019-02-16T03:49:49.349Z,76.31
2019-02-16T03:52:20.364Z,75.37
2019-02-16T03:54:51.548Z,75.30
2019-02-16T03:57:22.849Z,75.49
2019-02-16T03:59:53.982Z,76.22
2019-02-16T04:02:25.009Z,76.41
2019-02-16T04:04:56.065Z,75.57
2019-02-16T04:07:27.076Z,75.15
2019-02-16T04:09:58.087Z,75.07
2019-02-16T04:12:29.197Z,75.90
2019-02-16T04:15:00.320Z,76.09
2019-02-16T04:17:31.275Z,76.09
2019-02-16T04:20:02.306Z,75.88
2019-02-16T04:22:33.370Z,75.67
2019-02-16T04:25:04.756Z,75.69
2019-02-16T04:27:35.823Z,76.67
2019-02-16T04:30:07.422Z,77.05
2019-02-16T04:32:38.421Z,77.25
2019-02-16T04:35:09.603Z,77.14
2019-02-16T04:37:40.707Z,76.26
2019-02-16T04:40:11.907Z,75.98
2019-02-16T04:42:42.988Z,76.44
2019-02-16T04:45:14.186Z,76.97
2019-02-16T04:47:45.354Z,77.63
2019-02-16T04:50:16.455Z,77.49
2019-02-16T04:52:47.466Z,77.26
2019-02-16T04:55:18.553Z,76.31
2019-02-16T04:57:49.633Z,76.48
2019-02-16T05:00:20.686Z,76.52
2019-02-16T05:02:51.779Z,76.20
2019-02-16T05:05:23.757Z,75.39
2019-02-16T05:07:54.804Z,75.26
2019-02-16T05:10:25.930Z,75.68
2019-02-16T05:12:57.031Z,76.22
2019-02-16T05:15:28.140Z,76.06
2019-02-16T05:17:59.140Z,76.28
2019-02-16T05:20:30.155Z,76.94
2019-02-16T05:23:01.254Z,77.25
2019-02-16T05:25:32.278Z,77.21
2019-02-16T05:28:03.592Z,77.00
2019-02-16T05:30:34.720Z,77.48
2019-02-16T05:33:05.839Z,77.83
2019-02-16T05:35:36.954Z,78.09
2019-02-16T05:38:08.053Z,77.98
2019-02-16T05:40:39.153Z,77.93
2019-02-16T05:43:10.325Z,77.46
2019-02-16T05:45:41.357Z,77.70
2019-02-16T05:48:12.460Z,77.71
2019-02-16T05:50:43.526Z,77.86
2019-02-16T05:53:15.510Z,77.67
2019-02-16T05:55:46.623Z,77.77
2019-02-16T05:58:17.700Z,78.20
2019-02-16T06:00:48.905Z,78.66
2019-02-16T06:03:20.089Z,78.35
2019-02-16T06:05:51.599Z,77.61
2019-02-16T06:08:22.598Z,76.83
2019-02-16T06:10:53.628Z,76.19
2019-02-16T06:13:24.806Z,76.90
2019-02-16T06:15:55.981Z,77.34
2019-02-16T06:18:27.138Z,77.76
2019-02-16T06:20:58.244Z,78.41
2019-02-16T06:23:29.260Z,78.38
2019-02-16T06:26:00.365Z,78.53
2019-02-16T06:28:31.454Z,78.34
2019-02-16T06:31:02.512Z,78.19
2019-02-16T06:33:33.600Z,78.52
2019-02-16T06:36:09.457Z,78.59
2019-02-16T06:38:40.528Z,78.27
2019-02-16T06:41:11.566Z,78.16
2019-02-16T06:43:43.628Z,77.70
2019-02-16T06:46:14.653Z,77.70
2019-02-16T06:48:45.632Z,77.64
2019-02-16T06:51:16.665Z,77.94
2019-02-16T06:53:47.741Z,77.96
2019-02-16T06:56:37.823Z,77.97
2019-02-16T06:59:09.144Z,77.57
2019-02-16T07:01:40.164Z,77.11
2019-02-16T07:04:11.431Z,77.27
2019-02-16T07:06:42.589Z,77.29
2019-02-16T07:09:13.727Z,77.19
2019-02-16T07:11:44.811Z,77.27
2019-02-16T07:14:15.901Z,76.65
2019-02-16T07:16:55.775Z,76.62
2019-02-16T07:19:32.992Z,76.57
2019-02-16T07:22:04.225Z,76.11
2019-02-16T07:24:35.302Z,75.75
2019-02-16T07:27:06.459Z,75.79
2019-02-16T07:29:37.442Z,75.62
2019-02-16T07:32:08.514Z,75.06
2019-02-16T07:34:39.581Z,74.71
2019-02-16T07:37:10.611Z,74.89
2019-02-16T07:39:41.692Z,74.62
2019-02-16T07:42:12.848Z,74.53
2019-02-16T07:45:12.160Z,74.58
2019-02-16T07:48:07.180Z,74.08
2019-02-16T07:50:54.286Z,73.07
2019-02-16T07:53:44.368Z,71.00
2019-02-16T07:56:26.173Z,71.14
2019-02-16T07:59:31.318Z,69.31
2019-02-16T08:02:27.218Z,68.48
2019-02-16T08:05:03.835Z,68.33
2019-02-16T08:07:50.106Z,67.88
2019-02-16T08:10:49.108Z,67.51
2019-02-16T08:13:34.070Z,66.59
2019-02-16T08:16:24.154Z,64.87
2019-02-16T08:19:11.802Z,64.59
2019-02-16T08:21:54.024Z,63.86
2019-02-16T08:24:41.947Z,64.01
2019-02-16T08:27:27.638Z,64.17
2019-02-16T08:30:23.672Z,63.07
2019-02-16T08:33:07.491Z,62.98
2019-02-16T08:35:56.143Z,62.88
2019-02-16T08:38:37.012Z,61.01
2019-02-16T08:41:32.861Z,60.66
2019-02-16T08:44:11.987Z,59.42
2019-02-16T08:47:08.440Z,59.57
2019-02-16T08:50:10.521Z,60.39
2019-02-16T08:52:58.592Z,60.10
2019-02-16T08:55:54.440Z,58.53
2019-02-16T08:59:02.879Z,58.72
2019-02-16T09:01:43.415Z,56.96
2019-02-16T09:04:32.152Z,56.04
2019-02-16T09:07:21.465Z,55.12
2019-02-16T09:10:01.106Z,55.80
2019-02-16T09:12:55.124Z,54.17
2019-02-16T09:15:38.204Z,53.71
2019-02-16T09:18:19.777Z,53.93
2019-02-16T09:21:00.599Z,53.71
2019-02-16T09:23:59.081Z,53.17
2019-02-16T09:26:54.739Z,52.82
2019-02-16T09:29:47.735Z,51.84
2019-02-16T09:32:36.244Z,51.21
2019-02-16T09:35:32.712Z,50.80
2019-02-16T09:38:41.307Z,50.48
2019-02-16T09:41:25.854Z,48.72
2019-02-16T09:44:11.971Z,49.23
2019-02-16T09:47:10.842Z,48.42
2019-02-16T09:49:59.709Z,48.03
2019-02-16T09:52:55.422Z,47.86
2019-02-16T09:55:54.865Z,47.93
2019-02-16T09:58:38.380Z,47.67
2019-02-16T10:01:35.011Z,46.45
2019-02-16T10:04:19.670Z,46.19
2019-02-16T10:07:08.588Z,45.24
2019-02-16T10:09:57.636Z,46.50
2019-02-16T10:12:53.524Z,44.66
2019-02-16T10:15:42.348Z,43.22
2019-02-16T10:18:32.786Z,43.87
2019-02-16T10:21:21.520Z,43.64
2019-02-16T10:24:23.745Z,42.19
2019-02-16T10:27:13.813Z,42.92
2019-02-16T10:29:58.573Z,41.23
2019-02-16T10:32:40.531Z,41.57
2019-02-16T10:35:19.818Z,41.13
2019-02-16T10:38:11.320Z,40.40
2019-02-16T10:41:01.671Z,40.82
2019-02-16T10:43:55.569Z,40.93
2019-02-16T10:46:51.105Z,37.00
2019-02-16T10:49:43.939Z,36.60
2019-02-16T10:52:36.843Z,36.39
2019-02-16T10:55:19.917Z,36.47
2019-02-16T10:58:08.064Z,37.01
2019-02-16T11:01:00.930Z,35.79
2019-02-16T11:03:51.093Z,36.60
2019-02-16T11:06:41.027Z,37.71
2019-02-16T11:09:29.880Z,37.15
2019-02-16T11:12:35.285Z,36.49
2019-02-16T11:15:31.895Z,36.76
2019-02-16T11:18:13.911Z,37.96
2019-02-16T11:21:02.973Z,36.36
2019-02-16T11:23:54.395Z,36.60
2019-02-16T11:26:44.392Z,35.46
2019-02-16T11:29:33.182Z,35.18
2019-02-16T11:32:15.895Z,32.38
2019-02-16T11:34:57.441Z,31.89
2019-02-16T11:37:34.548Z,30.99
2019-02-16T11:40:25.143Z,31.11
2019-02-16T11:43:09.429Z,30.35
2019-02-16T11:45:46.582Z,29.45
2019-02-16T11:48:48.805Z,29.55
2019-02-16T11:51:37.495Z,29.03
2019-02-16T11:54:17.161Z,21.58
2019-02-16T11:57:10.323Z,17.27
2019-02-16T11:59:59.162Z,15.87
2019-02-16T12:02:42.608Z,14.55
2019-02-16T12:05:23.559Z,13.43
2019-02-16T12:08:16.704Z,13.22
2019-02-16T12:11:10.460Z,13.64
2019-02-16T12:13:50.454Z,13.44
2019-02-16T12:16:31.362Z,13.28
2019-02-16T12:19:12.907Z,13.28
2019-02-16T12:21:49.669Z,13.21
2019-02-16T12:24:26.985Z,13.26
2019-02-16T12:27:17.260Z,12.73
2019-02-16T12:29:55.685Z,15.31
2019-02-16T12:32:35.928Z,13.92
2019-02-16T12:35:28.064Z,15.66
2019-02-16T12:38:24.370Z,15.81
2019-02-16T12:41:09.908Z,15.54
2019-02-16T12:43:59.202Z,17.67
2019-02-16T12:46:36.864Z,17.68
2019-02-16T12:49:26.932Z,17.03
2019-02-16T12:52:13.862Z,16.36
2019-02-16T12:54:54.690Z,16.78
2019-02-16T12:57:47.771Z,16.65
2019-02-16T13:00:27.374Z,16.83
2019-02-16T13:03:20.361Z,16.65
2019-02-16T13:06:13.545Z,17.19
2019-02-16T13:09:09.737Z,17.12
2019-02-16T13:12:15.259Z,16.22
2019-02-16T13:15:03.362Z,16.40
2019-02-16T13:18:03.786Z,18.11
2019-02-16T13:20:44.772Z,18.00
2019-02-16T13:23:26.845Z,17.30
2019-02-16T13:26:15.426Z,17.89
2019-02-16T13:28:59.453Z,18.24
2019-02-16T13:31:35.830Z,16.54
2019-02-16T13:34:17.509Z,16.79
2019-02-16T13:37:13.883Z,16.29
2019-02-16T13:42:36.851Z,17.36
2019-02-16T13:45:20.440Z,17.01
2019-02-16T13:47:58.840Z,16.28
2019-02-16T13:50:38.907Z,16.03
2019-02-16T13:53:27.950Z,16.02
2019-02-16T13:56:18.159Z,16.40
2019-02-16T13:59:17.427Z,15.46
2019-02-16T14:02:16.548Z,15.63
2019-02-16T14:05:08.218Z,15.98
2019-02-16T14:08:07.440Z,15.17
2019-02-16T14:10:54.013Z,14.42
2019-02-16T14:13:49.195Z,15.28
2019-02-16T14:16:29.505Z,14.50
2019-02-16T14:19:00.616Z,15.11
2019-02-16T14:21:31.787Z,15.44
2019-02-16T14:24:02.966Z,14.59
2019-02-16T14:26:34.037Z,13.91
2019-02-16T14:29:05.186Z,12.78
2019-02-16T14:31:36.284Z,12.18
2019-02-16T14:34:07.310Z,13.03
2019-02-16T14:36:38.443Z,12.16
2019-02-16T14:39:15.418Z,11.37
2019-02-16T14:41:46.553Z,12.65
2019-02-16T14:44:17.638Z,11.85
2019-02-16T14:46:48.734Z,12.01
2019-02-16T14:49:19.815Z,10.36
2019-02-16T14:51:50.907Z,10.08
2019-02-16T14:54:21.989Z,10.81
2019-02-16T14:56:53.004Z,10.46
2019-02-16T14:59:24.087Z,10.24
2019-02-16T15:01:55.166Z,11.80
2019-02-16T15:04:26.388Z,13.36
2019-02-16T15:06:57.482Z,13.65
2019-02-16T15:09:28.555Z,14.16
2019-02-16T15:11:59.628Z,15.83
2019-02-16T15:14:30.660Z,16.88
2019-02-16T15:17:01.737Z,18.37
2019-02-16T15:19:32.766Z,18.89
2019-02-16T15:22:04.043Z,20.01
2019-02-16T15:24:35.161Z,20.93
2019-02-16T15:27:06.238Z,21.39
2019-02-16T15:29:37.412Z,22.64
2019-02-16T15:32:08.495Z,21.70
2019-02-16T15:34:39.543Z,22.25
2019-02-16T15:37:10.619Z,23.12
2019-02-16T15:39:41.697Z,24.20
2019-02-16T15:42:12.857Z,25.04
2019-02-16T15:44:46.176Z,25.64
2019-02-16T15:47:17.268Z,26.58
2019-02-16T15:49:48.376Z,26.58
2019-02-16T15:52:19.482Z,26.42
2019-02-16T15:54:50.588Z,26.60
2019-02-16T15:57:21.709Z,26.97
2019-02-16T15:59:52.877Z,29.02
2019-02-16T16:02:23.991Z,30.42
2019-02-16T16:04:55.170Z,30.69
2019-02-16T16:07:26.223Z,31.25
2019-02-16T16:10:08.725Z,32.18
2019-02-16T16:12:49.863Z,33.58
2019-02-16T16:15:46.290Z,34.41
2019-02-16T16:18:42.488Z,34.51
2019-02-16T16:21:22.546Z,35.01
2019-02-16T16:24:18.621Z,35.88
2019-02-16T16:27:17.651Z,36.74
2019-02-16T16:30:13.754Z,36.46
2019-02-16T16:33:15.845Z,37.38
2019-02-16T16:35:57.981Z,37.61
2019-02-16T16:38:47.009Z,38.06
2019-02-16T16:41:33.756Z,38.84
2019-02-16T16:44:26.879Z,39.54
2019-02-16T16:47:23.050Z,40.01
2019-02-16T16:50:01.429Z,40.77
2019-02-16T16:52:51.600Z,41.14
2019-02-16T16:55:34.040Z,41.38
2019-02-16T16:58:22.743Z,41.63
2019-02-16T17:01:18.892Z,41.71
2019-02-16T17:04:11.136Z,42.38
2019-02-16T17:07:07.594Z,42.91
2019-02-16T17:09:53.504Z,43.20
2019-02-16T17:13:01.995Z,44.15
2019-02-16T17:15:46.028Z,44.78
2019-02-16T17:18:43.294Z,45.09
2019-02-16T17:21:31.982Z,45.24
2019-02-16T17:24:22.072Z,45.42
2019-02-16T17:27:30.610Z,45.58
2019-02-16T17:30:29.680Z,45.49
2019-02-16T17:33:29.176Z,46.47
2019-02-16T17:36:13.744Z,46.41
2019-02-16T17:39:02.180Z,46.76
2019-02-16T17:41:53.285Z,47.29
2019-02-16T17:44:52.388Z,47.10
2019-02-16T17:47:37.849Z,47.53
2019-02-16T17:50:19.012Z,48.35
2019-02-16T17:53:08.166Z,48.58
2019-02-16T17:55:59.249Z,49.25
2019-02-16T17:58:42.009Z,49.44
2019-02-16T18:01:40.977Z,49.50
2019-02-16T18:04:49.484Z,49.62
2019-02-16T18:07:42.409Z,49.56
2019-02-16T18:10:27.163Z,49.44
2019-02-16T18:13:20.058Z,49.15
2019-02-16T18:15:56.566Z,49.61
2019-02-16T18:18:49.658Z,50.25
2019-02-16T18:21:54.789Z,50.49
2019-02-16T18:24:53.554Z,50.19
2019-02-16T18:27:40.583Z,50.47
2019-02-16T18:30:30.050Z,50.48
2019-02-16T18:33:18.872Z,51.05
2019-02-16T18:36:08.827Z,51.77
2019-02-16T18:38:48.681Z,52.25
2019-02-16T18:41:37.662Z,52.57
2019-02-16T18:44:35.391Z,53.06
2019-02-16T18:47:24.396Z,53.13
2019-02-16T18:50:17.483Z,53.58
2019-02-16T18:53:00.382Z,54.13
2019-02-16T18:56:02.949Z,53.75
2019-02-16T18:58:51.718Z,53.58
2019-02-16T19:01:40.783Z,54.62
2019-02-16T19:04:29.831Z,54.79
2019-02-16T19:07:10.032Z,54.65
2019-02-16T19:09:59.608Z,54.40
2019-02-16T19:12:48.665Z,54.03
2019-02-16T19:15:38.863Z,54.85
2019-02-16T19:18:18.055Z,54.60
2019-02-16T19:20:55.895Z,55.46
2019-02-16T19:23:36.043Z,55.77
2019-02-16T19:26:17.435Z,54.83
2019-02-16T19:29:10.663Z,56.19
2019-02-16T19:31:59.736Z,56.71
2019-02-16T19:34:52.397Z,56.72
2019-02-16T19:37:42.239Z,56.79
2019-02-16T19:40:31.061Z,57.14
2019-02-16T19:43:19.704Z,57.12
2019-02-16T19:46:18.792Z,57.09
2019-02-16T19:49:14.674Z,57.19
2019-02-16T19:52:16.887Z,58.22
2019-02-16T19:54:58.776Z,58.65
2019-02-16T19:57:42.128Z,59.07
2019-02-16T20:00:31.323Z,59.07
2019-02-16T20:03:29.877Z,58.90
2019-02-16T20:06:19.975Z,59.22
2019-02-16T20:09:10.077Z,60.33
2019-02-16T20:12:06.162Z,59.52
2019-02-16T20:14:45.631Z,59.80
2019-02-16T20:17:40.398Z,60.17
2019-02-16T20:20:23.217Z,60.62
2019-02-16T20:23:19.082Z,61.33
2019-02-16T20:26:07.005Z,60.43
2019-02-16T20:28:52.477Z,60.77
2019-02-16T20:32:01.354Z,60.64
2019-02-16T20:34:39.689Z,59.96
2019-02-16T20:37:19.855Z,60.05
2019-02-16T20:40:00.622Z,60.57
2019-02-16T20:42:42.174Z,60.40
2019-02-16T20:45:18.665Z,59.74
2019-02-16T20:48:17.941Z,59.82
2019-02-16T20:51:12.266Z,59.40
2019-02-16T20:53:50.791Z,60.30
2019-02-16T20:56:34.004Z,60.17
2019-02-16T20:59:36.304Z,59.45
2019-02-16T21:02:26.484Z,58.87
2019-02-16T21:05:15.949Z,58.90
2019-02-16T21:08:10.345Z,59.96
2019-02-16T21:10:56.252Z,59.71
2019-02-16T21:13:38.099Z,59.32
2019-02-16T21:16:21.470Z,59.15
2019-02-16T21:19:24.629Z,59.08
2019-02-16T21:22:20.881Z,59.49
2019-02-16T21:25:03.603Z,59.64
2019-02-16T21:27:46.412Z,59.29
2019-02-16T21:30:39.258Z,58.92
2019-02-16T21:33:26.686Z,59.03
2019-02-16T21:36:11.770Z,59.06
2019-02-16T21:39:03.425Z,58.91
2019-02-16T21:42:03.581Z,58.54
2019-02-16T21:45:02.658Z,58.35
2019-02-16T21:47:50.845Z,58.38
2019-02-16T21:51:01.738Z,57.64
2019-02-16T21:53:41.785Z,58.24
2019-02-16T21:56:24.293Z,58.25
2019-02-16T21:59:07.403Z,58.03
2019-02-16T22:01:56.731Z,58.78
2019-02-16T22:04:49.825Z,58.26
2019-02-16T22:07:38.902Z,58.81
2019-02-16T22:10:38.011Z,57.99
2019-02-16T22:13:09.213Z,58.17
2019-02-16T22:15:40.414Z,57.78
2019-02-16T22:18:11.517Z,57.95
2019-02-16T22:20:42.683Z,57.55
2019-02-16T22:23:13.870Z,57.60
2019-02-16T22:25:45.036Z,58.28
2019-02-16T22:28:18.654Z,58.75
2019-02-16T22:30:49.017Z,58.51
2019-02-16T22:33:20.084Z,58.18
2019-02-16T22:35:51.244Z,57.67
2019-02-16T22:38:22.401Z,57.41
2019-02-16T22:40:53.381Z,57.50
2019-02-16T22:43:24.503Z,58.03
2019-02-16T22:45:55.742Z,58.11
2019-02-16T22:48:26.980Z,58.33
2019-02-16T22:50:58.049Z,60.56
2019-02-16T22:53:29.173Z,59.51
2019-02-16T22:56:00.325Z,59.95
2019-02-16T22:58:31.409Z,59.78
2019-02-16T23:01:02.746Z,58.62
2019-02-16T23:03:35.576Z,58.81
2019-02-16T23:06:06.895Z,59.04
2019-02-16T23:08:38.032Z,58.21
2019-02-16T23:11:09.099Z,58.59
2019-02-16T23:13:40.403Z,58.43
2019-02-16T23:16:11.567Z,58.41
2019-02-16T23:18:42.767Z,58.55
2019-02-16T23:21:13.908Z,57.84
2019-02-16T23:23:45.101Z,57.68
2019-02-16T23:26:16.275Z,57.92
2019-02-16T23:28:47.430Z,58.09
2019-02-16T23:31:18.475Z,58.58
2019-02-16T23:33:49.477Z,57.67
2019-02-16T23:36:20.539Z,58.16
2019-02-16T23:38:51.605Z,58.52
2019-02-16T23:41:22.675Z,59.11
2019-02-16T23:43:53.715Z,58.97
2019-02-16T23:46:24.727Z,59.20
2019-02-16T23:48:55.856Z,59.12
2019-02-16T23:51:26.863Z,59.10
2019-02-16T23:53:57.908Z,59.18
2019-02-16T23:56:29.190Z,59.03
2019-02-16T23:59:00.275Z,58.93
